VIAR/ATQ METAR and TAF weather

Enter ICAO airport designator
Station Type Date Time Source
VIAR METAR 2022/11/30 11:00 UTC NOAA

VIAR 301100Z 29004KT 3200 HZ NSC 23/12 Q1015 BECMG 3000 HZ


Station Type Date Time Source
VIAR Decoded METAR 2022/11/30 11:00 UTC NOAA

Amritsar, India (VIAR) 31-38N 074-52E 234M
Nov 30, 2022 - 06:00 AM EST / 2022.11.30 1100 UTC
Wind: from the WNW (290 degrees) at 5 MPH (4 KT):0
Visibility: 1 mile(s):0
Weather: haze
Temperature: 73 F (23 C)
Dew Point: 53 F (12 C)
Relative Humidity: 49%
Pressure (altimeter): 29.97 in. Hg (1015 hPa)
ob: VIAR 301100Z 29004KT 3200 HZ NSC 23/12 Q1015 BECMG 3000 HZ
cycle: 11

Station Type Date Time Source
VIAR TAF 2022/11/30 12:06 UTC NOAA

TAF VIAR 301100Z 3012/0118 32005KT 3000 HZ NSC
BECMG 3018/3020 00000KT 1000 BR
BECMG 0100/0102 0100 FG
BECMG 0103/0105 VRB02KT 1200 BR
BECMG 0107/0109 27005KT 3000 HZ FEW100
BECMG 0115/0117 00000KT 1500 BR

Example: see airport list